Time;durP1;ratioP1;P1;durP2;ratioP2;P2;SDS_P1;SDS_P2;PMS_P1;PMS_P2;Temp;Humidity;BMP_temperature;BMP_pressure;BME280_temperature;BME280_humidity;BME280_pressure;Samples;Min_cycle;Max_cycle;Signal;HPM_P1;HPM_P2
2021/12/13 00:01:10;;;;;;;10.55;2.10;;;;;;;;;;5034337;28;20037;-74
2021/12/13 00:03:44;;;;;;;13.55;2.75;;;;;;;;;;5035125;28;20507;-74
2021/12/13 00:06:22;;;;;;;8.63;2.00;;;;;;;;;;5035672;28;20044;-74
2021/12/13 00:08:52;;;;;;;11.95;3.13;;;;;;;;;;5034153;28;20025;-74
2021/12/13 00:11:23;;;;;;;10.52;2.95;;;;;;;;;;5034140;28;20491;-74
2021/12/13 00:14:20;;;;;;;10.68;1.80;;;;;;;;;;5034352;28;20519;-71
2021/12/13 00:16:49;;;;;;;7.35;2.35;;;;;;;;;;5022884;28;20051;-73
2021/12/13 00:19:24;;;;;;;12.95;2.60;;;;;;;;;;5034089;28;20041;-73
2021/12/13 00:21:57;;;;;;;13.20;2.15;;;;;;;;;;5033948;28;20413;-73
2021/12/13 00:24:27;;;;;;;12.52;3.13;;;;;;;;;;5031698;28;20034;-75
2021/12/13 00:27:02;;;;;;;8.23;2.10;;;;;;;;;;5033920;28;20144;-73
2021/12/13 00:29:33;;;;;;;8.98;1.83;;;;;;;;;;5035233;28;20044;-74
2021/12/13 00:32:17;;;;;;;12.57;1.70;;;;;;;;;;5033782;28;20045;-73
2021/12/13 00:34:48;;;;;;;12.27;2.70;;;;;;;;;;5050360;28;20099;-73
2021/12/13 00:37:25;;;;;;;14.23;2.80;;;;;;;;;;5044297;28;20038;-73
2021/12/13 00:39:59;;;;;;;11.02;2.30;;;;;;;;;;5027182;28;20389;-73
2021/12/13 00:42:29;;;;;;;10.35;1.60;;;;;;;;;;5023623;28;20124;-74
2021/12/13 00:45:01;;;;;;;11.65;1.92;;;;;;;;;;5044818;28;20168;-73
2021/12/13 00:47:31;;;;;;;12.85;2.22;;;;;;;;;;5034616;28;20099;-73
2021/12/13 00:50:01;;;;;;;11.48;1.92;;;;;;;;;;5033637;28;20041;-73
2021/12/13 00:52:30;;;;;;;11.00;2.35;;;;;;;;;;5034429;28;20072;-73
2021/12/13 00:54:56;;;;;;;10.05;1.60;;;;;;;;;;5033254;28;20039;-73
2021/12/13 00:57:37;;;;;;;11.60;2.27;;;;;;;;;;5034473;28;20037;-73
2021/12/13 01:00:14;;;;;;;14.05;2.53;;;;;;;;;;5027553;28;20044;-73
2021/12/13 01:02:56;;;;;;;13.65;1.95;;;;;;;;;;5034066;28;20029;-73
2021/12/13 01:05:40;;;;;;;13.25;1.80;;;;;;;;;;5033306;28;20111;-73
2021/12/13 01:08:30;;;;;;;13.48;2.45;;;;;;;;;;5032694;28;20029;-73
2021/12/13 01:11:17;;;;;;;12.10;2.20;;;;;;;;;;5033039;28;20397;-75
2021/12/13 01:13:53;;;;;;;12.70;2.70;;;;;;;;;;5034224;28;20030;-71
2021/12/13 01:16:34;;;;;;;10.48;2.38;;;;;;;;;;5034228;28;20052;-71
2021/12/13 01:19:46;;;;;;;8.60;2.17;;;;;;;;;;5034277;28;20033;-72
2021/12/13 01:28:11;;;;;;;10.70;2.17;;;;;;;;;;5032512;28;20124;-72
2021/12/13 01:30:43;;;;;;;7.97;1.80;;;;;;;;;;5033942;28;20057;-71
2021/12/13 01:33:10;;;;;;;12.98;2.10;;;;;;;;;;5033514;28;20052;-71
2021/12/13 01:35:40;;;;;;;12.27;2.55;;;;;;;;;;5031179;28;20057;-71
2021/12/13 01:38:19;;;;;;;10.77;2.47;;;;;;;;;;5033921;28;20120;-71
2021/12/13 01:40:49;;;;;;;12.30;2.13;;;;;;;;;;5033782;28;20045;-71
2021/12/13 01:43:28;;;;;;;8.85;2.63;;;;;;;;;;5033162;28;20120;-71
2021/12/13 01:45:55;;;;;;;21.70;3.30;;;;;;;;;;5032382;28;20037;-71
2021/12/13 01:48:25;;;;;;;17.42;4.03;;;;;;;;;;5031387;28;20037;-71
2021/12/13 01:50:53;;;;;;;12.48;3.63;;;;;;;;;;5033693;28;20033;-71
2021/12/13 01:53:39;;;;;;;19.92;3.15;;;;;;;;;;5039091;28;20041;-71
2021/12/13 01:56:22;;;;;;;10.18;2.63;;;;;;;;;;5033427;28;20052;-72
2021/12/13 01:58:48;;;;;;;10.93;3.08;;;;;;;;;;5047003;28;20053;-71
2021/12/13 02:01:21;;;;;;;12.27;3.40;;;;;;;;;;5033186;28;20049;-71
2021/12/13 02:03:53;;;;;;;11.20;2.60;;;;;;;;;;5032125;28;20049;-71
2021/12/13 02:06:35;;;;;;;14.18;2.22;;;;;;;;;;5033684;28;20053;-71
2021/12/13 02:09:25;;;;;;;12.13;3.40;;;;;;;;;;5030470;28;20040;-72
2021/12/13 02:11:58;;;;;;;9.02;2.10;;;;;;;;;;5031763;28;20068;-71
2021/12/13 02:14:28;;;;;;;25.73;3.95;;;;;;;;;;5032217;28;20052;-72
2021/12/13 02:17:12;;;;;;;15.90;2.78;;;;;;;;;;5032051;28;20092;-72
2021/12/13 02:20:01;;;;;;;7.82;2.10;;;;;;;;;;5031952;28;20045;-71
2021/12/13 02:22:49;;;;;;;14.70;3.38;;;;;;;;;;5025773;28;20547;-72
2021/12/13 02:25:36;;;;;;;11.00;2.40;;;;;;;;;;5022917;28;20466;-71
2021/12/13 02:28:06;;;;;;;12.10;2.40;;;;;;;;;;5033144;28;20037;-71
2021/12/13 02:30:40;;;;;;;9.43;2.63;;;;;;;;;;5053153;28;20084;-71
2021/12/13 02:33:08;;;;;;;15.90;2.42;;;;;;;;;;5024224;28;20056;-71
2021/12/13 02:35:37;;;;;;;10.02;2.40;;;;;;;;;;5033006;28;20041;-71
2021/12/13 02:38:05;;;;;;;9.40;2.08;;;;;;;;;;5032747;28;20045;-71
2021/12/13 02:40:31;;;;;;;10.95;1.83;;;;;;;;;;5032724;28;20044;-72
2021/12/13 02:42:56;;;;;;;10.50;2.13;;;;;;;;;;5033243;28;20038;-72
2021/12/13 02:45:32;;;;;;;12.37;2.20;;;;;;;;;;5032813;28;20271;-72
2021/12/13 02:48:04;;;;;;;7.10;2.10;;;;;;;;;;5031362;28;20120;-71
2021/12/13 02:50:49;;;;;;;8.52;2.58;;;;;;;;;;5030575;28;21718;-72
2021/12/13 02:53:24;;;;;;;7.97;2.45;;;;;;;;;;5028124;28;20038;-72
2021/12/13 02:55:50;;;;;;;8.23;2.50;;;;;;;;;;5048252;28;20092;-71
2021/12/13 02:58:20;;;;;;;12.57;3.20;;;;;;;;;;5031654;28;20461;-71
2021/12/13 03:00:53;;;;;;;12.35;2.25;;;;;;;;;;5032557;28;20045;-71
2021/12/13 03:03:26;;;;;;;11.50;2.95;;;;;;;;;;5032676;28;20045;-72
2021/12/13 03:05:54;;;;;;;12.57;2.60;;;;;;;;;;5032592;28;20064;-72
2021/12/13 03:08:30;;;;;;;16.95;2.55;;;;;;;;;;5048059;28;20079;-72
2021/12/13 03:11:01;;;;;;;8.60;2.40;;;;;;;;;;5032737;28;20037;-72
2021/12/13 03:13:31;;;;;;;13.65;3.53;;;;;;;;;;5032623;28;20035;-71
2021/12/13 03:16:06;;;;;;;7.15;1.85;;;;;;;;;;5031311;28;20064;-71
2021/12/13 03:18:45;;;;;;;6.03;2.35;;;;;;;;;;5030823;28;20106;-71
2021/12/13 03:21:48;;;;;;;9.07;2.10;;;;;;;;;;5023354;28;20045;-72
2021/12/13 03:24:34;;;;;;;8.57;1.95;;;;;;;;;;5036106;28;20478;-71
2021/12/13 03:27:36;;;;;;;8.30;2.08;;;;;;;;;;5027324;28;20048;-71
2021/12/13 03:30:13;;;;;;;7.60;2.47;;;;;;;;;;5033352;28;20045;-71
2021/12/13 03:32:53;;;;;;;9.25;2.60;;;;;;;;;;5034824;28;20053;-71
2021/12/13 03:35:37;;;;;;;7.28;2.70;;;;;;;;;;5036088;28;20041;-71
2021/12/13 03:38:07;;;;;;;7.63;2.40;;;;;;;;;;5035087;28;20030;-71
2021/12/13 03:40:34;;;;;;;10.38;3.75;;;;;;;;;;5051320;28;20033;-71
2021/12/13 03:43:07;;;;;;;5.97;2.92;;;;;;;;;;5034555;28;20485;-72
2021/12/13 03:45:49;;;;;;;13.73;3.20;;;;;;;;;;5035495;28;20504;-72
2021/12/13 03:48:21;;;;;;;10.65;2.83;;;;;;;;;;5034688;28;20044;-71
2021/12/13 03:50:49;;;;;;;8.50;3.10;;;;;;;;;;5035806;28;20159;-72
2021/12/13 03:53:19;;;;;;;10.43;2.97;;;;;;;;;;5051316;28;20049;-72
2021/12/13 03:55:48;;;;;;;10.07;3.00;;;;;;;;;;5035969;28;20043;-72
2021/12/13 03:58:16;;;;;;;10.98;2.65;;;;;;;;;;5035822;28;20111;-71
2021/12/13 04:00:57;;;;;;;13.20;3.08;;;;;;;;;;5034056;28;20083;-72
2021/12/13 04:03:24;;;;;;;7.30;2.60;;;;;;;;;;5035751;28;20080;-72
2021/12/13 04:05:51;;;;;;;10.15;3.17;;;;;;;;;;5047788;28;20124;-72
2021/12/13 04:08:19;;;;;;;7.00;2.97;;;;;;;;;;5034108;28;20478;-73
2021/12/13 04:10:49;;;;;;;8.18;2.70;;;;;;;;;;5034508;28;20099;-72
2021/12/13 04:13:17;;;;;;;8.75;3.13;;;;;;;;;;5034187;28;20124;-72
2021/12/13 04:16:29;;;;;;;10.88;2.80;;;;;;;;;;5034402;28;20125;-72
2021/12/13 04:19:17;;;;;;;12.40;2.80;;;;;;;;;;5023538;28;20050;-72
2021/12/13 04:21:59;;;;;;;9.70;2.95;;;;;;;;;;5031079;28;20139;-71
2021/12/13 04:24:41;;;;;;;7.68;3.25;;;;;;;;;;5032789;28;20041;-71
2021/12/13 04:27:21;;;;;;;7.53;2.60;;;;;;;;;;5020412;28;20029;-72
2021/12/13 04:29:50;;;;;;;7.00;2.88;;;;;;;;;;5037993;28;20044;-72
2021/12/13 04:32:30;;;;;;;8.93;4.45;;;;;;;;;;5034726;28;20033;-73
2021/12/13 04:34:58;;;;;;;9.43;2.60;;;;;;;;;;5033852;28;20037;-73
2021/12/13 04:37:32;;;;;;;10.77;2.55;;;;;;;;;;5049656;28;20117;-73
2021/12/13 04:40:01;;;;;;;7.47;2.95;;;;;;;;;;5033501;28;20065;-74
2021/12/13 04:42:28;;;;;;;7.43;3.08;;;;;;;;;;5034782;28;20057;-72
2021/12/13 04:45:06;;;;;;;8.85;3.22;;;;;;;;;;5033331;28;20052;-71
2021/12/13 04:47:42;;;;;;;12.60;3.85;;;;;;;;;;5034600;28;20046;-72
2021/12/13 04:50:16;;;;;;;10.23;3.67;;;;;;;;;;5033631;28;20072;-72
2021/12/13 04:52:41;;;;;;;11.15;4.20;;;;;;;;;;5033398;28;20041;-71
2021/12/13 04:55:12;;;;;;;13.17;4.47;;;;;;;;;;5033209;28;20537;-72
2021/12/13 04:57:38;;;;;;;13.57;4.13;;;;;;;;;;5032957;28;20528;-71
2021/12/13 05:00:10;;;;;;;11.98;4.50;;;;;;;;;;5033494;28;20120;-72
2021/12/13 05:02:42;;;;;;;16.55;4.80;;;;;;;;;;5033224;28;20461;-73
2021/12/13 05:05:07;;;;;;;13.38;4.40;;;;;;;;;;5033379;28;20030;-74
2021/12/13 05:07:33;;;;;;;14.83;3.87;;;;;;;;;;5049721;28;20042;-74
2021/12/13 05:09:59;;;;;;;22.95;5.22;;;;;;;;;;5033311;28;20064;-73
2021/12/13 05:12:28;;;;;;;17.90;4.43;;;;;;;;;;5034083;28;20072;-72
2021/12/13 05:15:07;;;;;;;15.48;4.72;;;;;;;;;;5049103;28;20055;-72
2021/12/13 05:17:44;;;;;;;16.83;5.07;;;;;;;;;;5033978;28;20046;-71
2021/12/13 05:20:39;;;;;;;11.70;4.53;;;;;;;;;;5032924;28;20140;-72
2021/12/13 05:23:11;;;;;;;13.80;4.68;;;;;;;;;;5029837;28;20077;-73
2021/12/13 05:25:46;;;;;;;12.90;3.67;;;;;;;;;;5032911;28;20041;-72
2021/12/13 05:28:19;;;;;;;11.93;3.80;;;;;;;;;;5040823;28;20037;-72
2021/12/13 05:30:49;;;;;;;14.57;3.40;;;;;;;;;;5038676;28;20041;-72
2021/12/13 05:33:18;;;;;;;15.52;3.00;;;;;;;;;;5033497;28;20037;-72
2021/12/13 05:35:47;;;;;;;13.02;2.95;;;;;;;;;;5032909;28;20037;-72
2021/12/13 05:38:29;;;;;;;15.13;2.80;;;;;;;;;;5032625;28;20033;-72
2021/12/13 05:40:55;;;;;;;11.30;2.58;;;;;;;;;;5033528;28;20462;-71
2021/12/13 05:43:33;;;;;;;14.57;2.35;;;;;;;;;;5033145;28;20029;-72
2021/12/13 05:46:11;;;;;;;14.30;2.45;;;;;;;;;;5033341;28;20091;-72
2021/12/13 05:48:47;;;;;;;16.20;2.55;;;;;;;;;;5023513;28;20037;-72
2021/12/13 05:51:35;;;;;;;15.80;2.97;;;;;;;;;;5031367;28;20026;-72
2021/12/13 05:54:09;;;;;;;16.25;2.28;;;;;;;;;;5032904;28;20025;-72
2021/12/13 05:56:41;;;;;;;7.45;2.10;;;;;;;;;;5033395;28;20043;-72
2021/12/13 05:59:15;;;;;;;11.80;1.80;;;;;;;;;;5033666;28;20022;-72
2021/12/13 06:01:56;;;;;;;13.05;2.25;;;;;;;;;;5033377;28;20469;-72
2021/12/13 06:04:34;;;;;;;15.55;4.95;;;;;;;;;;5033501;28;20033;-72
2021/12/13 06:07:00;;;;;;;15.10;4.00;;;;;;;;;;5021803;28;20099;-72
2021/12/13 06:10:07;;;;;;;11.33;2.07;;;;;;;;;;5033312;28;20033;-71
2021/12/13 06:12:41;;;;;;;9.95;2.25;;;;;;;;;;5022029;28;20493;-72
2021/12/13 06:15:33;;;;;;;10.80;1.63;;;;;;;;;;5047915;28;20041;-72
2021/12/13 06:18:04;;;;;;;13.10;1.98;;;;;;;;;;5031909;28;20477;-72
2021/12/13 06:20:43;;;;;;;9.45;2.05;;;;;;;;;;5029260;28;20045;-74
2021/12/13 06:23:12;;;;;;;10.90;2.15;;;;;;;;;;5031889;28;20046;-72
2021/12/13 06:25:39;;;;;;;9.07;1.92;;;;;;;;;;5033170;28;20029;-72
2021/12/13 06:28:05;;;;;;;9.77;2.55;;;;;;;;;;5031830;28;20041;-73
2021/12/13 06:30:38;;;;;;;15.52;2.30;;;;;;;;;;5043355;28;20068;-72
2021/12/13 06:33:09;;;;;;;11.43;1.67;;;;;;;;;;5034458;28;20436;-72
2021/12/13 06:35:37;;;;;;;18.20;2.58;;;;;;;;;;5031836;28;20052;-72
2021/12/13 06:38:18;;;;;;;13.77;2.40;;;;;;;;;;5044180;28;20398;-71
2021/12/13 06:40:50;;;;;;;10.73;1.38;;;;;;;;;;5026910;28;20570;-72
2021/12/13 06:43:36;;;;;;;11.20;2.05;;;;;;;;;;5033056;28;20036;-72
2021/12/13 06:46:22;;;;;;;9.88;1.52;;;;;;;;;;5032796;28;20123;-72
2021/12/13 06:48:50;;;;;;;13.05;2.03;;;;;;;;;;5032469;28;20038;-72
2021/12/13 06:51:18;;;;;;;12.82;3.13;;;;;;;;;;5032721;28;20048;-72
2021/12/13 06:54:06;;;;;;;12.63;2.05;;;;;;;;;;5046248;28;20498;-71
2021/12/13 06:56:34;;;;;;;14.55;1.70;;;;;;;;;;5036813;28;20053;-71
2021/12/13 06:59:02;;;;;;;7.82;2.10;;;;;;;;;;5035778;28;20429;-72
2021/12/13 07:01:31;;;;;;;12.82;2.03;;;;;;;;;;5052102;28;20057;-74
2021/12/13 07:04:00;;;;;;;6.72;1.58;;;;;;;;;;5036898;28;20041;-74
2021/12/13 07:06:26;;;;;;;6.18;1.65;;;;;;;;;;5033060;28;20366;-74
2021/12/13 07:09:06;;;;;;;9.38;2.03;;;;;;;;;;5036726;28;20112;-74
2021/12/13 07:11:46;;;;;;;10.23;1.88;;;;;;;;;;5033870;28;20033;-74
2021/12/13 07:14:14;;;;;;;11.57;2.22;;;;;;;;;;5035343;28;20039;-72
2021/12/13 07:16:42;;;;;;;7.90;1.90;;;;;;;;;;5051843;28;20048;-72
2021/12/13 07:19:26;;;;;;;12.68;2.38;;;;;;;;;;5051761;28;20037;-72
2021/12/13 07:22:04;;;;;;;7.47;1.75;;;;;;;;;;5021842;28;20045;-71
2021/12/13 07:24:33;;;;;;;6.80;2.08;;;;;;;;;;5029285;28;20036;-72
2021/12/13 07:27:06;;;;;;;7.25;2.67;;;;;;;;;;5036229;28;20069;-71
2021/12/13 07:29:35;;;;;;;10.70;1.90;;;;;;;;;;5053617;28;20033;-72
2021/12/13 07:32:03;;;;;;;9.82;2.53;;;;;;;;;;5040393;28;20041;-72
2021/12/13 07:34:29;;;;;;;10.52;2.95;;;;;;;;;;5036150;28;20123;-72
2021/12/13 07:37:03;;;;;;;9.93;2.50;;;;;;;;;;5035055;28;20135;-71
2021/12/13 07:39:34;;;;;;;8.90;2.35;;;;;;;;;;5036106;28;20040;-72
2021/12/13 07:42:03;;;;;;;9.05;2.38;;;;;;;;;;5034592;28;20045;-72
2021/12/13 07:44:31;;;;;;;10.23;3.28;;;;;;;;;;5035925;28;20128;-72
2021/12/13 07:47:00;;;;;;;11.57;1.58;;;;;;;;;;5022723;28;20029;-72
2021/12/13 07:49:32;;;;;;;8.20;2.47;;;;;;;;;;5035490;28;20052;-72
2021/12/13 07:52:00;;;;;;;5.38;1.90;;;;;;;;;;5051105;28;20038;-71
2021/12/13 07:54:26;;;;;;;6.20;2.17;;;;;;;;;;5034738;28;20060;-72
2021/12/13 07:56:56;;;;;;;6.30;1.58;;;;;;;;;;5035825;28;20037;-71
2021/12/13 07:59:27;;;;;;;7.30;1.60;;;;;;;;;;5031940;28;20155;-75
2021/12/13 08:02:07;;;;;;;4.97;1.48;;;;;;;;;;5030981;28;20099;-74
2021/12/13 08:04:35;;;;;;;4.20;1.33;;;;;;;;;;5034376;28;20041;-75
2021/12/13 08:07:09;;;;;;;9.18;1.50;;;;;;;;;;5032723;28;20489;-74
2021/12/13 08:09:42;;;;;;;7.00;1.63;;;;;;;;;;5033707;28;20037;-74
2021/12/13 08:12:19;;;;;;;10.55;2.08;;;;;;;;;;5033077;28;20045;-75
2021/12/13 08:14:48;;;;;;;8.10;1.80;;;;;;;;;;5033784;28;20034;-75
2021/12/13 08:17:40;;;;;;;7.75;1.30;;;;;;;;;;5034387;28;20033;-75
2021/12/13 08:20:08;;;;;;;12.35;1.98;;;;;;;;;;5033021;28;20116;-75
2021/12/13 08:22:36;;;;;;;11.82;2.30;;;;;;;;;;5032732;28;20040;-75
2021/12/13 08:25:08;;;;;;;6.32;1.33;;;;;;;;;;5030672;28;20474;-74
2021/12/13 08:27:38;;;;;;;2.85;1.10;;;;;;;;;;5047057;28;20052;-75
2021/12/13 08:30:10;;;;;;;5.40;1.45;;;;;;;;;;5035001;28;20079;-75
2021/12/13 08:32:36;;;;;;;4.53;1.30;;;;;;;;;;5033940;28;20042;-79
2021/12/13 08:35:06;;;;;;;3.60;1.23;;;;;;;;;;5033604;28;20405;-74
2021/12/13 08:37:35;;;;;;;3.67;1.48;;;;;;;;;;5034802;28;20041;-74
2021/12/13 08:40:01;;;;;;;5.63;2.50;;;;;;;;;;5033851;28;20037;-74
2021/12/13 08:42:29;;;;;;;5.50;1.50;;;;;;;;;;5034869;28;20437;-74
2021/12/13 08:45:05;;;;;;;5.22;1.10;;;;;;;;;;5016934;28;20102;-74
2021/12/13 08:47:41;;;;;;;5.40;1.67;;;;;;;;;;5034511;28;20477;-74
2021/12/13 08:50:16;;;;;;;4.97;1.20;;;;;;;;;;5034851;28;20057;-77
2021/12/13 08:52:45;;;;;;;4.28;1.63;;;;;;;;;;5032899;28;20385;-75
2021/12/13 08:55:10;;;;;;;6.00;2.75;;;;;;;;;;5041837;28;20438;-76
2021/12/13 08:57:51;;;;;;;3.30;1.20;;;;;;;;;;5030045;28;20072;-79
2021/12/13 09:00:35;;;;;;;4.38;1.48;;;;;;;;;;5030291;28;20116;-75
2021/12/13 09:03:10;;;;;;;5.38;1.63;;;;;;;;;;5029881;28;20460;-75
2021/12/13 09:05:40;;;;;;;2.75;1.33;;;;;;;;;;5018277;28;20041;-75
2021/12/13 09:08:05;;;;;;;8.27;2.30;;;;;;;;;;5029695;28;20037;-74
2021/12/13 09:10:39;;;;;;;9.97;2.77;;;;;;;;;;5031191;28;20443;-74
2021/12/13 09:13:05;;;;;;;7.60;2.22;;;;;;;;;;5031258;28;20080;-75
2021/12/13 09:15:33;;;;;;;5.30;1.93;;;;;;;;;;5030009;28;20064;-74
2021/12/13 09:17:59;;;;;;;6.22;1.80;;;;;;;;;;5030870;28;20408;-74
2021/12/13 09:20:34;;;;;;;5.50;1.80;;;;;;;;;;5030671;28;20071;-74
2021/12/13 09:23:16;;;;;;;5.30;1.42;;;;;;;;;;5029350;28;20022;-75
2021/12/13 09:25:46;;;;;;;4.05;1.60;;;;;;;;;;5029309;28;20388;-74
2021/12/13 09:28:22;;;;;;;6.97;1.70;;;;;;;;;;5047375;28;20077;-74
2021/12/13 09:30:53;;;;;;;4.07;1.27;;;;;;;;;;5052683;28;20048;-74
2021/12/13 09:33:28;;;;;;;5.65;2.80;;;;;;;;;;5032425;28;20043;-75
2021/12/13 09:36:02;;;;;;;5.15;1.95;;;;;;;;;;5030230;28;20046;-74
2021/12/13 09:38:36;;;;;;;6.00;2.17;;;;;;;;;;5030077;28;20038;-75
2021/12/13 09:41:08;;;;;;;7.20;1.90;;;;;;;;;;5030377;28;20062;-74
2021/12/13 09:43:47;;;;;;;5.47;2.70;;;;;;;;;;5030512;28;20396;-74
2021/12/13 09:46:19;;;;;;;9.02;2.70;;;;;;;;;;5030308;28;20042;-74
2021/12/13 09:48:51;;;;;;;9.25;2.22;;;;;;;;;;5032113;28;20018;-74
2021/12/13 09:51:22;;;;;;;8.18;2.00;;;;;;;;;;5040975;28;20040;-74
2021/12/13 09:53:51;;;;;;;6.13;1.70;;;;;;;;;;5034022;28;20038;-76
2021/12/13 09:56:18;;;;;;;3.55;1.52;;;;;;;;;;5027863;28;20056;-75
2021/12/13 09:59:11;;;;;;;3.78;1.75;;;;;;;;;;5029150;28;20037;-75
2021/12/13 10:01:38;;;;;;;5.07;1.67;;;;;;;;;;5030011;28;20041;-79
2021/12/13 10:04:14;;;;;;;6.15;1.35;;;;;;;;;;5028683;28;20033;-75
2021/12/13 10:06:46;;;;;;;4.35;1.30;;;;;;;;;;5028569;28;20037;-80
2021/12/13 10:09:20;;;;;;;3.35;1.40;;;;;;;;;;5028619;28;20480;-79
2021/12/13 10:11:51;;;;;;;6.55;1.55;;;;;;;;;;5029069;28;20042;-75
2021/12/13 10:14:22;;;;;;;5.82;1.83;;;;;;;;;;5025919;28;20061;-74
2021/12/13 10:16:50;;;;;;;8.20;2.42;;;;;;;;;;5044367;28;20044;-74
2021/12/13 10:19:21;;;;;;;3.88;1.30;;;;;;;;;;5024633;28;20037;-76
2021/12/13 10:21:48;;;;;;;3.40;1.65;;;;;;;;;;5030125;28;20108;-79
2021/12/13 10:24:42;;;;;;;;;;;;;;;;;;5030365;28;20029;-75
2021/12/13 10:27:10;;;;;;;4.13;1.80;;;;;;;;;;5017722;28;20337;-75
2021/12/13 10:29:36;;;;;;;8.15;1.83;;;;;;;;;;5027725;28;20037;-76
2021/12/13 10:32:06;;;;;;;10.90;3.85;;;;;;;;;;5016218;28;20052;-74
2021/12/13 10:34:35;;;;;;;5.82;1.70;;;;;;;;;;5028734;28;20061;-75
2021/12/13 10:37:11;;;;;;;9.98;1.90;;;;;;;;;;5044447;28;20120;-74
2021/12/13 10:39:43;;;;;;;6.15;1.73;;;;;;;;;;5027277;28;20083;-75
2021/12/13 10:42:33;;;;;;;9.73;1.77;;;;;;;;;;5028935;28;20473;-75
2021/12/13 10:45:02;;;;;;;6.00;1.75;;;;;;;;;;5033160;28;20026;-75
2021/12/13 10:47:33;;;;;;;3.80;1.80;;;;;;;;;;5029473;28;20041;-74
2021/12/13 10:50:01;;;;;;;3.33;1.40;;;;;;;;;;5043676;28;20124;-74
2021/12/13 10:52:30;;;;;;;5.32;1.33;;;;;;;;;;5029137;28;20044;-76
2021/12/13 10:54:59;;;;;;;5.10;1.40;;;;;;;;;;5019023;28;20041;-75
2021/12/13 10:57:36;;;;;;;5.65;1.65;;;;;;;;;;5027563;28;20523;-75
2021/12/13 11:00:06;;;;;;;5.68;1.50;;;;;;;;;;5026749;28;20072;-74
2021/12/13 11:02:34;;;;;;;6.18;1.30;;;;;;;;;;5028418;28;20140;-74
2021/12/13 11:05:10;;;;;;;4.00;1.17;;;;;;;;;;5024357;28;20195;-74
2021/12/13 11:07:36;;;;;;;2.90;1.52;;;;;;;;;;5029365;28;20541;-74
2021/12/13 11:10:07;;;;;;;6.07;1.63;;;;;;;;;;5027425;28;20038;-74
2021/12/13 11:12:36;;;;;;;4.10;1.20;;;;;;;;;;5026970;28;20099;-74
2021/12/13 11:15:09;;;;;;;4.10;0.88;;;;;;;;;;5042952;28;20116;-74
2021/12/13 11:17:35;;;;;;;6.57;1.00;;;;;;;;;;5028114;28;20115;-74
2021/12/13 11:20:12;;;;;;;3.50;1.05;;;;;;;;;;5027043;28;20131;-74
2021/12/13 11:22:38;;;;;;;1.42;0.70;;;;;;;;;;5027637;28;20041;-75
2021/12/13 11:25:17;;;;;;;1.70;0.90;;;;;;;;;;5018416;28;20037;-75
2021/12/13 11:27:43;;;;;;;4.65;1.20;;;;;;;;;;5044048;28;20087;-80
2021/12/13 11:30:13;;;;;;;5.68;1.65;;;;;;;;;;5051759;28;20388;-74
2021/12/13 11:33:09;;;;;;;3.25;1.40;;;;;;;;;;5031867;28;20041;-75
2021/12/13 11:36:11;;;;;;;5.85;1.30;;;;;;;;;;5028275;28;20045;-74
2021/12/13 11:39:14;;;;;;;5.80;1.23;;;;;;;;;;5026904;28;20093;-74
2021/12/13 11:41:51;;;;;;;2.92;1.20;;;;;;;;;;5021344;28;20033;-74
2021/12/13 11:44:44;;;;;;;3.90;1.70;;;;;;;;;;5030676;28;20033;-80
2021/12/13 11:47:33;;;;;;;3.92;1.30;;;;;;;;;;5032094;28;20049;-75
2021/12/13 11:50:35;;;;;;;2.63;1.20;;;;;;;;;;5031651;28;20029;-75
2021/12/13 11:53:18;;;;;;;2.70;1.00;;;;;;;;;;5031443;28;20123;-75
2021/12/13 11:56:11;;;;;;;3.90;1.13;;;;;;;;;;5031673;28;20061;-74
2021/12/13 11:59:14;;;;;;;2.55;1.10;;;;;;;;;;5024201;28;20051;-74
2021/12/13 12:01:55;;;;;;;2.78;1.00;;;;;;;;;;5031852;28;20025;-74
2021/12/13 12:04:33;;;;;;;3.83;1.30;;;;;;;;;;5020810;28;20073;-75
2021/12/13 12:06:58;;;;;;;2.60;1.27;;;;;;;;;;5031721;28;20461;-74
2021/12/13 12:09:57;;;;;;;2.30;1.10;;;;;;;;;;5031772;28;20038;-80
2021/12/13 12:12:58;;;;;;;2.20;0.98;;;;;;;;;;5022952;28;20026;-74
2021/12/13 12:15:26;;;;;;;4.22;1.10;;;;;;;;;;5021380;28;20482;-75
2021/12/13 12:17:54;;;;;;;1.83;1.05;;;;;;;;;;5030766;28;20040;-74
2021/12/13 12:20:28;;;;;;;6.55;1.38;;;;;;;;;;5046378;28;20045;-74
2021/12/13 12:22:57;;;;;;;2.70;1.42;;;;;;;;;;5031577;28;20123;-74
2021/12/13 12:25:25;;;;;;;3.80;1.15;;;;;;;;;;5030197;28;20041;-74
2021/12/13 12:27:55;;;;;;;3.53;1.25;;;;;;;;;;5034661;28;20458;-74
2021/12/13 12:30:23;;;;;;;2.80;1.30;;;;;;;;;;5035735;28;20088;-74
2021/12/13 12:32:54;;;;;;;3.80;1.15;;;;;;;;;;5029796;28;20095;-76
2021/12/13 12:35:24;;;;;;;5.38;1.25;;;;;;;;;;5031213;28;20079;-75
2021/12/13 12:38:15;;;;;;;3.78;1.40;;;;;;;;;;5026144;28;20126;-74
2021/12/13 12:41:05;;;;;;;2.63;1.42;;;;;;;;;;5028780;28;20037;-76
2021/12/13 12:43:36;;;;;;;4.75;1.40;;;;;;;;;;5030293;28;20041;-74
2021/12/13 12:46:07;;;;;;;3.38;1.00;;;;;;;;;;5031368;28;20036;-75
2021/12/13 12:48:38;;;;;;;2.95;1.42;;;;;;;;;;5030486;28;20453;-74
2021/12/13 12:51:11;;;;;;;4.22;1.67;;;;;;;;;;5031284;28;20038;-74
2021/12/13 12:53:47;;;;;;;4.68;2.38;;;;;;;;;;5030143;28;20140;-78
2021/12/13 12:56:24;;;;;;;3.78;2.05;;;;;;;;;;5029285;28;20033;-76
2021/12/13 12:59:14;;;;;;;4.75;1.73;;;;;;;;;;5029207;28;20053;-74
2021/12/13 13:01:53;;;;;;;3.28;1.40;;;;;;;;;;5030588;28;20041;-80
2021/12/13 13:04:22;;;;;;;4.88;1.83;;;;;;;;;;5032863;28;20404;-74
2021/12/13 13:07:00;;;;;;;7.82;2.10;;;;;;;;;;5030398;28;20025;-75
2021/12/13 13:09:44;;;;;;;;;;;;;;;;;;5030870;28;20073;-74
2021/12/13 13:12:13;;;;;;;4.07;1.98;;;;;;;;;;5030557;28;20377;-74
2021/12/13 13:14:48;;;;;;;3.40;1.85;;;;;;;;;;5028101;28;20136;-74
2021/12/13 13:17:14;;;;;;;5.28;1.90;;;;;;;;;;5020945;28;20532;-75
2021/12/13 13:19:46;;;;;;;3.60;1.63;;;;;;;;;;5029796;28;20124;-74
2021/12/13 13:22:23;;;;;;;2.25;1.60;;;;;;;;;;5045803;28;20120;-76
2021/12/13 13:24:51;;;;;;;;;;;;;;;;;;5027206;28;20045;-74
2021/12/13 13:27:18;;;;;;;1.85;1.10;;;;;;;;;;5031202;28;20410;-74
2021/12/13 13:29:43;;;;;;;3.58;1.17;;;;;;;;;;5032025;28;20041;-74
2021/12/13 13:32:12;;;;;;;1.60;1.00;;;;;;;;;;5037613;28;20499;-74
2021/12/13 13:34:52;;;;;;;2.80;1.05;;;;;;;;;;5029915;28;20036;-74
2021/12/13 13:37:30;;;;;;;2.20;1.00;;;;;;;;;;5022335;28;20037;-74
2021/12/13 13:40:03;;;;;;;3.42;1.10;;;;;;;;;;5030267;28;20545;-74
2021/12/13 13:42:32;;;;;;;1.65;0.90;;;;;;;;;;5027730;28;20052;-80
2021/12/13 13:45:07;;;;;;;1.83;0.90;;;;;;;;;;5028639;28;20029;-74
2021/12/13 13:47:38;;;;;;;2.17;0.98;;;;;;;;;;5029397;28;20533;-74
2021/12/13 13:50:27;;;;;;;2.53;0.88;;;;;;;;;;5027284;28;20159;-74
2021/12/13 13:52:56;;;;;;;1.38;0.70;;;;;;;;;;5028766;28;20044;-73
2021/12/13 13:55:26;;;;;;;1.88;0.80;;;;;;;;;;5026804;28;20033;-74
2021/12/13 13:58:01;;;;;;;1.55;0.75;;;;;;;;;;5027956;28;20445;-73
2021/12/13 14:00:43;;;;;;;1.90;0.88;;;;;;;;;;5027957;28;20037;-73
2021/12/13 14:03:10;;;;;;;2.70;1.02;;;;;;;;;;5029543;28;20120;-81
2021/12/13 14:05:38;;;;;;;1.50;1.25;;;;;;;;;;5028199;28;20048;-73
2021/12/13 14:08:17;;;;;;;2.90;1.80;;;;;;;;;;5029414;28;20071;-75
2021/12/13 14:10:43;;;;;;;3.92;1.48;;;;;;;;;;5028988;28;20037;-77
2021/12/13 14:13:08;;;;;;;2.53;1.10;;;;;;;;;;5028651;28;20044;-74
2021/12/13 14:15:37;;;;;;;4.33;1.60;;;;;;;;;;5029560;28;20033;-74
2021/12/13 14:18:16;;;;;;;1.65;1.00;;;;;;;;;;5028786;28;20493;-73
2021/12/13 14:20:47;;;;;;;2.03;0.90;;;;;;;;;;5024600;28;20054;-74
2021/12/13 14:23:12;;;;;;;14.43;1.35;;;;;;;;;;5025226;28;20123;-74
2021/12/13 14:26:02;;;;;;;3.65;1.33;;;;;;;;;;5029113;28;20076;-74
2021/12/13 14:28:30;;;;;;;4.28;1.17;;;;;;;;;;5013468;28;20123;-74
2021/12/13 14:30:55;;;;;;;1.85;1.00;;;;;;;;;;5036316;28;20532;-74
2021/12/13 14:33:27;;;;;;;4.77;1.67;;;;;;;;;;5028075;28;20033;-74
2021/12/13 14:36:21;;;;;;;3.63;1.23;;;;;;;;;;5028338;28;20042;-80
2021/12/13 14:39:17;;;;;;;4.28;2.35;;;;;;;;;;5028592;28;20455;-76
2021/12/13 14:41:46;;;;;;;5.22;2.53;;;;;;;;;;5012654;28;20176;-77
2021/12/13 14:44:14;;;;;;;8.52;3.53;;;;;;;;;;5028730;28;20607;-74
2021/12/13 14:46:49;;;;;;;6.90;3.72;;;;;;;;;;5026623;28;20084;-73
2021/12/13 14:49:20;;;;;;;11.02;3.92;;;;;;;;;;5028812;28;20064;-74
2021/12/13 14:51:52;;;;;;;12.20;4.93;;;;;;;;;;5027694;28;20108;-74
2021/12/13 14:54:21;;;;;;;10.23;4.15;;;;;;;;;;5044024;28;20041;-74
2021/12/13 14:57:01;;;;;;;14.82;6.32;;;;;;;;;;5040687;28;20054;-74
2021/12/13 14:59:32;;;;;;;18.15;5.28;;;;;;;;;;5029140;28;20068;-74
2021/12/13 15:01:59;;;;;;;8.30;3.90;;;;;;;;;;5027343;28;20175;-74
2021/12/13 15:04:25;;;;;;;;;;;;;;;;;;5010657;28;20386;-74
2021/12/13 15:06:55;;;;;;;20.50;8.48;;;;;;;;;;5027639;28;20004;-74
2021/12/13 15:09:25;;;;;;;13.07;5.45;;;;;;;;;;5029159;28;20401;-74
2021/12/13 15:12:03;;;;;;;5.63;3.30;;;;;;;;;;5028501;28;20036;-74
2021/12/13 15:14:33;;;;;;;10.75;5.10;;;;;;;;;;5028674;28;20512;-75
2021/12/13 15:17:12;;;;;;;9.05;4.65;;;;;;;;;;5033448;28;20041;-73
2021/12/13 15:19:38;;;;;;;12.95;6.22;;;;;;;;;;5033284;28;20090;-73
2021/12/13 15:22:05;;;;;;;13.07;5.60;;;;;;;;;;5032844;28;20076;-74
2021/12/13 15:24:33;;;;;;;20.52;8.40;;;;;;;;;;5032776;28;20172;-74
2021/12/13 15:27:01;;;;;;;20.38;6.90;;;;;;;;;;5033218;28;20029;-74